Time;durP1;ratioP1;P1;durP2;ratioP2;P2;SDS_P1;SDS_P2;PMS_P1;PMS_P2;Temp;Humidity;BMP_temperature;BMP_pressure;BME280_temperature;BME280_humidity;BME280_pressure;Samples;Min_cycle;Max_cycle;Signal;HPM_P1;HPM_P2
2022/01/19 00:00:12;;;;;;;7.72;3.70;;;;;;;0.37;53.30;101471.41;5110553;28;20031;-20
2022/01/19 00:02:38;;;;;;;7.72;3.58;;;;;;;0.24;53.00;101467.22;5092362;28;20032;-20
2022/01/19 00:05:05;;;;;;;9.43;3.80;;;;;;;0.38;53.41;101482.72;5110625;28;20043;-21
2022/01/19 00:07:30;;;;;;;10.02;3.65;;;;;;;0.48;53.04;101493.38;5110754;28;20030;-21
2022/01/19 00:09:57;;;;;;;8.80;3.63;;;;;;;0.32;52.80;101499.78;5110462;28;20031;-21
2022/01/19 00:12:22;;;;;;;8.35;3.17;;;;;;;0.29;54.18;101489.53;5110872;28;20050;-21
2022/01/19 00:14:47;;;;;;;6.95;3.17;;;;;;;0.24;54.16;101491.66;5110202;28;20554;-21
2022/01/19 00:17:13;;;;;;;11.10;3.85;;;;;;;0.24;54.51;101502.16;5110254;28;20036;-21
2022/01/19 00:19:38;;;;;;;6.80;3.33;;;;;;;0.31;53.75;101499.91;5110337;28;20059;-21
2022/01/19 00:22:04;;;;;;;6.90;3.38;;;;;;;0.22;54.43;101518.97;5092133;28;20036;-21
2022/01/19 00:24:29;;;;;;;9.10;3.55;;;;;;;0.19;54.79;101509.56;5110193;28;20034;-21
2022/01/19 00:26:56;;;;;;;9.65;4.05;;;;;;;0.22;54.79;101505.84;5109955;28;20437;-22
2022/01/19 00:29:21;;;;;;;6.03;2.80;;;;;;;0.13;54.53;101507.38;5110014;28;20032;-21
2022/01/19 00:31:47;;;;;;;8.07;3.08;;;;;;;0.20;53.50;101511.19;5110351;28;20032;-20
2022/01/19 00:34:12;;;;;;;8.77;3.50;;;;;;;0.18;54.20;101518.34;5110205;28;20057;-21
2022/01/19 00:36:38;;;;;;;7.40;3.75;;;;;;;0.17;54.18;101503.59;5110091;28;20471;-21
2022/01/19 00:39:03;;;;;;;8.82;2.72;;;;;;;-0.04;54.57;101487.66;5109856;28;20019;-20
2022/01/19 00:41:29;;;;;;;8.70;3.25;;;;;;;0.05;54.81;101486.97;5110006;28;20412;-21
2022/01/19 00:43:54;;;;;;;10.77;3.47;;;;;;;0.16;54.57;101508.00;5109547;28;20081;-21
2022/01/19 00:46:20;;;;;;;8.57;3.42;;;;;;;0.09;54.59;101508.56;5110251;28;20028;-21
2022/01/19 00:48:45;;;;;;;7.10;3.13;;;;;;;0.24;54.37;101517.88;5109840;28;20031;-21
2022/01/19 00:51:11;;;;;;;7.32;3.65;;;;;;;0.35;54.50;101533.66;5109601;28;20031;-20
2022/01/19 00:53:36;;;;;;;7.55;3.30;;;;;;;0.24;54.25;101528.38;5109791;28;20035;-20
2022/01/19 00:56:02;;;;;;;8.40;3.65;;;;;;;0.32;55.18;101546.19;5109620;28;20031;-21
2022/01/19 00:58:27;;;;;;;10.77;3.67;;;;;;;0.24;54.80;101535.44;5091091;28;20533;-21
2022/01/19 01:00:53;;;;;;;8.95;4.05;;;;;;;0.21;54.49;101512.88;5109645;28;20420;-21
2022/01/19 01:03:18;;;;;;;10.68;3.40;;;;;;;0.23;54.94;101526.72;5109595;28;20019;-21
2022/01/19 01:05:45;;;;;;;9.18;3.53;;;;;;;-0.04;55.71;101506.88;5091115;28;20032;-21
2022/01/19 01:08:10;;;;;;;6.03;3.30;;;;;;;0.28;55.35;101545.56;5109450;28;20023;-21
2022/01/19 01:10:42;;;;;;;10.27;3.33;;;;;;;0.07;55.24;101547.19;5074255;28;20039;-21
2022/01/19 01:16:05;;;;;;;7.38;3.67;;;;;;;0.09;57.04;101529.56;5076712;28;20096;-21
2022/01/19 01:18:33;;;;;;;12.35;3.53;;;;;;;0.24;55.50;101559.88;5109110;28;20403;-21
2022/01/19 01:20:59;;;;;;;8.48;3.63;;;;;;;0.00;55.83;101538.94;5109051;28;20044;-21
2022/01/19 01:23:26;;;;;;;9.85;3.65;;;;;;;0.08;56.45;101538.34;5108827;28;20032;-21
2022/01/19 01:25:52;;;;;;;9.53;3.40;;;;;;;-0.14;57.25;101560.94;5109152;28;20114;-21
2022/01/19 01:28:17;;;;;;;7.03;3.35;;;;;;;-0.22;57.13;101550.19;5109183;28;20707;-20
2022/01/19 01:30:43;;;;;;;7.60;3.13;;;;;;;-0.19;56.92;101539.44;5109126;28;20627;-21
2022/01/19 01:33:08;;;;;;;8.65;3.53;;;;;;;-0.16;57.75;101557.59;5108892;28;20031;-21
2022/01/19 01:35:34;;;;;;;8.13;3.50;;;;;;;-0.17;57.33;101573.44;5090645;28;20038;-21
2022/01/19 01:38:00;;;;;;;9.38;4.07;;;;;;;-0.09;57.02;101569.28;5108641;28;20108;-20
2022/01/19 01:40:26;;;;;;;8.93;3.60;;;;;;;-0.25;57.18;101560.88;5108793;28;20046;-21
2022/01/19 01:42:53;;;;;;;8.23;3.65;;;;;;;-0.26;58.17;101561.84;5108798;28;20153;-22
2022/01/19 01:45:24;;;;;;;11.05;3.70;;;;;;;-0.67;58.26;101542.06;5108707;28;20620;-21
2022/01/19 01:47:55;;;;;;;7.22;3.08;;;;;;;-0.51;59.33;101563.59;5108573;28;20058;-21
2022/01/19 01:55:49;;;;;;;8.30;3.78;;;;;;;-0.25;58.81;101564.31;5108525;28;20510;-21
2022/01/19 01:58:14;;;;;;;7.38;3.13;;;;;;;-0.50;59.27;101557.41;5090029;28;20044;-21
2022/01/19 02:00:40;;;;;;;10.13;3.75;;;;;;;-0.52;58.70;101551.44;5108384;28;20468;-21
2022/01/19 02:03:05;;;;;;;8.65;3.17;;;;;;;-0.57;59.19;101553.56;5107880;28;20462;-21
2022/01/19 02:05:35;;;;;;;7.90;3.70;;;;;;;-0.49;58.49;101540.75;5108353;28;20042;-20
2022/01/19 02:08:06;;;;;;;9.88;4.00;;;;;;;-0.41;59.08;101527.94;5090504;28;20034;-21
2022/01/19 02:15:57;;;;;;;7.40;3.63;;;;;;;-0.48;58.86;101523.22;5107924;28;20039;-21
2022/01/19 02:23:54;;;;;;;7.10;3.25;;;;;;;-0.18;59.11;101533.28;5107926;28;20476;-21
2022/01/19 02:26:31;;;;;;;7.78;3.40;;;;;;;-0.11;58.95;101526.59;5107913;28;20055;-22
2022/01/19 02:29:23;;;;;;;9.38;3.72;;;;;;;0.05;57.80;101526.31;5107863;28;20062;-23
2022/01/19 02:42:30;;;;;;;9.30;4.60;;;;;;;-0.14;58.12;101513.75;5107949;28;20109;-21
2022/01/19 02:49:50;;;;;;;9.75;4.65;;;;;;;0.21;57.21;101547.00;5107646;28;20031;-21
2022/01/19 02:52:17;;;;;;;9.77;4.50;;;;;;;0.27;56.91;101541.28;5107996;28;20126;-21
2022/01/19 02:54:42;;;;;;;8.98;4.65;;;;;;;0.19;57.03;101530.53;5107668;28;20059;-21
2022/01/19 02:57:11;;;;;;;10.43;4.45;;;;;;;-0.14;58.50;101491.91;5106977;28;20066;-20
2022/01/19 03:10:26;;;;;;;9.70;3.85;;;;;;;-0.55;59.15;101530.72;5107443;28;20070;-21
2022/01/19 03:12:51;;;;;;;9.30;3.60;;;;;;;-0.49;58.21;101535.50;5107458;28;20475;-20
2022/01/19 03:15:17;;;;;;;10.65;4.38;;;;;;;-0.63;59.24;101517.31;5107612;28;20036;-21
2022/01/19 03:17:42;;;;;;;10.43;4.15;;;;;;;-0.17;57.63;101545.41;5107340;28;20046;-21
2022/01/19 03:20:09;;;;;;;8.18;3.90;;;;;;;-0.75;58.93;101555.72;5107199;28;20055;-21
2022/01/19 03:22:40;;;;;;;9.60;4.93;;;;;;;-0.31;58.37;101561.31;5107190;28;20133;-21
2022/01/19 03:25:12;;;;;;;8.85;4.20;;;;;;;-0.58;57.86;101551.06;5107304;28;20039;-21
2022/01/19 03:27:39;;;;;;;10.80;4.22;;;;;;;-0.23;57.48;101564.22;5107442;28;20060;-22
2022/01/19 03:30:06;;;;;;;8.77;4.00;;;;;;;-0.30;57.24;101545.47;5107424;28;20055;-21
2022/01/19 03:32:31;;;;;;;11.93;4.40;;;;;;;-0.04;57.26;101574.19;5106967;28;20265;-22
2022/01/19 03:34:57;;;;;;;7.85;3.50;;;;;;;-0.05;56.71;101570.75;5107229;28;20120;-21
2022/01/19 03:37:22;;;;;;;8.07;3.72;;;;;;;-0.04;57.69;101572.44;5088816;28;20031;-21
2022/01/19 03:39:48;;;;;;;13.32;4.50;;;;;;;-0.05;56.04;101565.50;5107238;28;20020;-21
2022/01/19 03:42:13;;;;;;;7.53;3.63;;;;;;;-0.17;57.79;101560.31;5106969;28;20396;-22
2022/01/19 03:44:39;;;;;;;9.15;3.60;;;;;;;-0.12;56.71;101556.41;5107251;28;20027;-21
2022/01/19 03:47:06;;;;;;;7.57;4.18;;;;;;;-0.44;56.88;101522.91;5106471;28;20076;-21
2022/01/19 03:49:33;;;;;;;8.13;3.60;;;;;;;0.05;57.76;101559.59;5107685;28;20483;-21
2022/01/19 03:52:02;;;;;;;8.93;4.68;;;;;;;-0.16;56.53;101560.22;5111082;28;20082;-21
2022/01/19 03:54:29;;;;;;;8.63;4.03;;;;;;;-0.65;57.68;101555.91;5092747;28;20028;-21
2022/01/19 03:56:55;;;;;;;8.27;3.72;;;;;;;-1.01;59.51;101544.44;5110894;28;20046;-21
2022/01/19 03:59:20;;;;;;;7.53;3.53;;;;;;;-0.89;59.27;101561.91;5110564;28;20480;-22
2022/01/19 04:01:46;;;;;;;9.15;3.53;;;;;;;-0.95;58.83;101551.03;5110666;28;20572;-21
2022/01/19 04:09:21;;;;;;;9.00;3.72;;;;;;;-0.45;58.56;101571.03;5110458;28;20032;-21
2022/01/19 04:11:46;;;;;;;10.55;3.90;;;;;;;-0.69;58.58;101576.22;5110509;28;20047;-21
2022/01/19 04:14:27;;;;;;;10.45;3.97;;;;;;;-0.42;58.82;101570.78;5091986;28;20039;-21
2022/01/19 04:17:13;;;;;;;8.98;4.03;;;;;;;-0.92;58.50;101528.09;5110535;28;20040;-21
2022/01/19 04:22:05;;;;;;;10.50;3.70;;;;;;;-0.93;59.95;101573.53;5110481;28;20042;-20
2022/01/19 04:24:30;;;;;;;11.88;4.25;;;;;;;-1.22;59.89;101558.06;5110063;28;20042;-21
2022/01/19 04:29:57;;;;;;;10.73;4.75;;;;;;;-1.20;60.36;101575.47;5110446;28;20410;-21
2022/01/19 04:32:31;;;;;;;8.38;4.18;;;;;;;-1.27;59.84;101581.13;5110138;28;20118;-20
2022/01/19 04:34:57;;;;;;;10.57;4.22;;;;;;;-1.53;60.89;101561.09;5109855;28;20023;-22
2022/01/19 04:37:37;;;;;;;9.15;4.00;;;;;;;-1.01;59.92;101592.41;5110070;28;20051;-21
2022/01/19 04:45:54;;;;;;;9.07;3.95;;;;;;;-0.98;58.94;101575.66;5109669;28;20552;-21
2022/01/19 05:07:39;;;;;;;11.60;5.90;;;;;;;-1.17;59.57;101631.06;5102820;28;20536;-21
2022/01/19 05:15:15;;;;;;;11.70;5.38;;;;;;;-1.15;59.30;101610.84;5109320;28;20581;-21
2022/01/19 05:17:40;;;;;;;11.13;5.20;;;;;;;-0.76;59.59;101631.78;5109260;28;20047;-21
2022/01/19 05:20:07;;;;;;;12.73;5.07;;;;;;;-0.67;57.66;101639.00;5109217;28;20054;-21
2022/01/19 05:22:32;;;;;;;13.48;5.47;;;;;;;-0.87;58.68;101620.25;5109184;28;20052;-21
2022/01/19 05:24:58;;;;;;;13.88;6.13;;;;;;;-0.70;58.58;101644.44;5108633;28;20036;-21
2022/01/19 05:27:23;;;;;;;19.63;7.50;;;;;;;-0.97;58.32;101640.16;5109258;28;20035;-21
2022/01/19 05:29:49;;;;;;;9.80;4.82;;;;;;;-0.95;58.35;101619.94;5109226;28;20491;-21
2022/01/19 05:32:15;;;;;;;10.15;4.43;;;;;;;-0.85;57.94;101622.78;5109536;28;20083;-21
2022/01/19 05:34:40;;;;;;;13.93;4.82;;;;;;;-0.54;55.85;101647.66;5090965;28;20855;-21
2022/01/19 05:37:06;;;;;;;9.65;4.15;;;;;;;-0.41;55.73;101632.78;5108565;28;20032;-21
2022/01/19 05:39:31;;;;;;;10.82;4.18;;;;;;;-0.56;56.89;101656.59;5109026;28;20069;-22
2022/01/19 05:41:56;;;;;;;11.02;4.13;;;;;;;-0.86;57.77;101637.66;5108582;28;20471;-22
2022/01/19 05:44:22;;;;;;;10.70;4.65;;;;;;;-0.66;57.83;101656.38;5108835;28;20050;-21
2022/01/19 05:46:47;;;;;;;8.77;3.78;;;;;;;-0.46;56.64;101655.00;5108542;28;20414;-21
2022/01/19 05:49:13;;;;;;;9.32;4.13;;;;;;;-0.53;57.24;101662.47;5108371;28;20031;-21
2022/01/19 05:51:38;;;;;;;8.85;4.25;;;;;;;-0.53;56.91;101638.88;5108446;28;20031;-21
2022/01/19 05:54:04;;;;;;;10.25;4.53;;;;;;;-0.02;55.18;101669.34;5108378;28;20574;-21
2022/01/19 05:56:29;;;;;;;8.20;4.20;;;;;;;-0.28;56.30;101658.94;5089772;28;20041;-20
2022/01/19 05:58:55;;;;;;;9.80;4.63;;;;;;;-0.72;56.77;101655.03;5108815;28;20035;-21
2022/01/19 06:01:20;;;;;;;10.60;4.55;;;;;;;-0.65;57.26;101644.97;5108341;28;20035;-21
2022/01/19 06:03:46;;;;;;;10.88;4.43;;;;;;;-0.78;57.36;101654.63;5108299;28;20036;-21
2022/01/19 06:06:11;;;;;;;8.48;4.70;;;;;;;-0.85;58.30;101660.28;5108364;28;20058;-21
2022/01/19 06:08:44;;;;;;;9.57;4.60;;;;;;;-0.50;57.04;101657.00;5108095;28;20031;-21
2022/01/19 06:11:10;;;;;;;8.40;4.03;;;;;;;-0.32;56.71;101677.63;5107927;28;20657;-21
2022/01/19 06:13:36;;;;;;;11.40;4.85;;;;;;;-0.19;56.93;101675.78;5108055;28;20050;-21
2022/01/19 06:16:01;;;;;;;14.13;5.50;;;;;;;0.01;55.78;101684.03;5108138;28;20452;-22
2022/01/19 06:18:27;;;;;;;11.68;5.55;;;;;;;-0.17;56.59;101691.44;5108114;28;20108;-21
2022/01/19 06:20:52;;;;;;;12.52;5.07;;;;;;;-0.44;57.18;101690.63;5108096;28;20432;-20
2022/01/19 06:23:18;;;;;;;11.40;5.38;;;;;;;-0.64;58.53;101688.56;5107391;28;20031;-21
2022/01/19 06:25:43;;;;;;;12.95;6.28;;;;;;;-0.45;57.57;101694.22;5107528;28;20023;-22
2022/01/19 06:28:09;;;;;;;15.20;9.30;;;;;;;-0.25;57.53;101689.34;5107917;28;20034;-21
2022/01/19 06:30:34;;;;;;;17.13;9.23;;;;;;;-0.27;56.81;101701.72;5107887;28;20141;-21
2022/01/19 06:33:00;;;;;;;14.32;6.63;;;;;;;-0.19;57.99;101709.88;5107525;28;20032;-20
2022/01/19 06:35:25;;;;;;;14.88;6.00;;;;;;;-0.03;57.68;101705.22;5107661;28;20118;-22
2022/01/19 06:37:51;;;;;;;10.30;4.07;;;;;;;-0.16;57.36;101683.47;5107533;28;20471;-21
2022/01/19 06:40:16;;;;;;;11.43;4.40;;;;;;;-0.10;57.70;101693.50;5107387;28;20027;-21
2022/01/19 06:42:42;;;;;;;11.15;4.80;;;;;;;-0.10;57.52;101704.00;5089438;28;20084;-21
2022/01/19 06:45:08;;;;;;;10.73;6.00;;;;;;;-0.47;58.67;101708.34;5107534;28;20781;-21
2022/01/19 06:47:34;;;;;;;12.85;7.20;;;;;;;-0.45;59.01;101709.94;5107533;28;20098;-21
2022/01/19 06:50:00;;;;;;;12.82;5.43;;;;;;;-0.23;58.80;101713.66;5107509;28;20019;-21
2022/01/19 06:52:25;;;;;;;8.07;4.07;;;;;;;-0.36;58.06;101673.53;5107157;28;20040;-22
2022/01/19 06:54:50;;;;;;;13.40;4.05;;;;;;;-0.06;58.01;101700.22;5107390;28;20035;-21
2022/01/19 06:57:16;;;;;;;7.65;4.00;;;;;;;-0.02;57.73;101706.91;5107323;28;20487;-21
2022/01/19 06:59:45;;;;;;;7.88;3.83;;;;;;;0.17;57.66;101706.41;5107641;28;20388;-22
2022/01/19 07:02:11;;;;;;;11.40;5.18;;;;;;;-0.03;57.51;101699.97;5107546;28;20096;-21
2022/01/19 07:04:36;;;;;;;11.98;6.38;;;;;;;-0.05;57.70;101717.59;5107545;28;20032;-21
2022/01/19 07:07:03;;;;;;;13.48;5.15;;;;;;;-0.28;58.50;101695.66;5107310;28;20384;-21
2022/01/19 07:09:28;;;;;;;10.82;5.70;;;;;;;-0.11;57.95;101715.41;5107350;28;20023;-21
2022/01/19 07:11:55;;;;;;;11.38;4.43;;;;;;;-0.14;58.14;101702.53;5107812;28;20794;-21
2022/01/19 07:14:20;;;;;;;13.27;5.65;;;;;;;-0.12;57.06;101674.44;5107349;28;20033;-21
2022/01/19 07:16:46;;;;;;;9.80;4.95;;;;;;;0.17;56.74;101705.59;5107248;28;20475;-21
2022/01/19 07:19:13;;;;;;;32.95;13.18;;;;;;;0.35;56.34;101691.13;5106540;28;20570;-21
2022/01/19 07:21:39;;;;;;;10.40;4.75;;;;;;;0.54;56.78;101697.66;5107063;28;20032;-21
2022/01/19 07:24:04;;;;;;;13.82;5.00;;;;;;;0.65;55.16;101715.22;5089081;28;20031;-21
2022/01/19 07:26:30;;;;;;;18.85;9.00;;;;;;;0.79;54.47;101723.75;5111051;28;20063;-21
2022/01/19 07:28:55;;;;;;;9.93;5.38;;;;;;;0.63;54.74;101696.97;5111542;28;20036;-21
2022/01/19 07:31:21;;;;;;;10.13;4.63;;;;;;;0.82;55.09;101713.97;5110911;28;20073;-21
2022/01/19 07:33:46;;;;;;;12.98;4.90;;;;;;;0.90;54.59;101719.47;5111142;28;20152;-21
2022/01/19 07:36:12;;;;;;;12.80;6.05;;;;;;;1.04;55.58;101706.13;5110917;28;20031;-21
2022/01/19 07:38:37;;;;;;;7.88;4.13;;;;;;;1.11;54.51;101696.03;5110949;28;20088;-22
2022/01/19 07:41:02;;;;;;;14.70;4.68;;;;;;;1.11;55.19;101703.91;5110918;28;20096;-20
2022/01/19 07:43:28;;;;;;;8.45;4.35;;;;;;;0.86;54.67;101662.88;5111163;28;20039;-21
2022/01/19 07:45:53;;;;;;;11.88;4.88;;;;;;;1.19;54.77;101705.00;5111130;28;20447;-21
2022/01/19 07:48:19;;;;;;;26.73;10.48;;;;;;;1.07;54.53;101679.66;5110862;28;20039;-21
2022/01/19 07:50:44;;;;;;;23.15;9.23;;;;;;;1.31;55.18;101719.00;5110679;28;20038;-22
2022/01/19 07:53:10;;;;;;;32.92;11.73;;;;;;;1.52;54.59;101719.13;5110304;28;20100;-21
2022/01/19 07:55:35;;;;;;;18.75;8.07;;;;;;;1.28;54.90;101702.59;5092435;28;20031;-21
2022/01/19 07:58:01;;;;;;;20.67;7.53;;;;;;;1.69;54.71;101709.91;5110529;28;20169;-21
2022/01/19 08:00:27;;;;;;;12.55;5.47;;;;;;;1.51;53.38;101677.16;5110863;28;20034;-20
2022/01/19 08:02:53;;;;;;;12.77;6.07;;;;;;;1.57;53.34;101688.06;5110596;28;20039;-21
2022/01/19 08:05:18;;;;;;;17.20;7.30;;;;;;;2.06;53.09;101716.69;5110484;28;20057;-20
2022/01/19 08:07:44;;;;;;;20.02;8.68;;;;;;;1.87;52.88;101699.72;5110446;28;20437;-21
2022/01/19 08:10:10;;;;;;;14.38;6.30;;;;;;;2.03;52.94;101709.03;5111013;28;20039;-21
2022/01/19 08:12:35;;;;;;;12.38;4.97;;;;;;;2.27;52.25;101707.06;5110479;28;20035;-21
2022/01/19 08:15:01;;;;;;;11.60;5.28;;;;;;;2.13;52.72;101710.81;5110071;28;20122;-21
2022/01/19 08:17:27;;;;;;;12.88;5.25;;;;;;;2.34;51.95;101713.50;5110023;28;20024;-21
2022/01/19 08:19:53;;;;;;;14.65;5.43;;;;;;;2.77;51.76;101725.78;5088414;28;20075;-21
2022/01/19 08:22:19;;;;;;;13.43;6.88;;;;;;;2.81;50.69;101727.19;5090070;28;20027;-21
2022/01/19 08:24:44;;;;;;;11.55;6.13;;;;;;;3.00;50.68;101744.09;5089980;28;20035;-21
2022/01/19 08:27:10;;;;;;;18.88;9.02;;;;;;;2.95;51.00;101718.16;5089659;28;20035;-21
2022/01/19 08:29:35;;;;;;;11.93;5.45;;;;;;;3.05;49.83;101733.19;5089880;28;20035;-21
2022/01/19 08:32:01;;;;;;;9.35;4.82;;;;;;;2.91;50.19;101721.16;5089757;28;20050;-21
2022/01/19 08:34:26;;;;;;;11.80;4.95;;;;;;;2.76;50.86;101715.38;5089730;28;20039;-21
2022/01/19 08:36:52;;;;;;;10.65;5.20;;;;;;;2.87;50.02;101725.03;5088215;28;20070;-21
2022/01/19 08:39:18;;;;;;;10.73;5.05;;;;;;;3.14;49.62;101714.78;5089317;28;20486;-20
2022/01/19 08:41:44;;;;;;;11.98;5.22;;;;;;;3.16;50.15;101718.13;5089362;28;20039;-21
2022/01/19 08:44:09;;;;;;;11.63;5.30;;;;;;;2.96;50.06;101689.97;5089529;28;20093;-20
2022/01/19 08:46:37;;;;;;;11.20;4.78;;;;;;;3.24;49.32;101717.47;5089464;28;20413;-21
2022/01/19 08:49:03;;;;;;;11.07;5.25;;;;;;;3.28;49.57;101702.25;5088127;28;20483;-21
2022/01/19 08:51:28;;;;;;;11.13;6.15;;;;;;;3.50;48.83;101706.53;5089333;28;20040;-20
2022/01/19 08:53:53;;;;;;;9.68;4.40;;;;;;;3.45;48.32;101704.25;5089735;28;20397;-21
2022/01/19 08:56:19;;;;;;;8.48;4.20;;;;;;;3.56;48.31;101703.34;5089221;28;20082;-21
2022/01/19 08:58:44;;;;;;;9.52;4.97;;;;;;;3.43;49.16;101714.09;5089314;28;20535;-21
2022/01/19 09:01:10;;;;;;;11.15;4.95;;;;;;;3.64;48.33;101711.44;5088976;28;20345;-21
2022/01/19 09:03:35;;;;;;;9.27;4.55;;;;;;;3.69;48.60;101706.59;5089210;28;20431;-20
2022/01/19 09:06:01;;;;;;;12.52;5.43;;;;;;;4.08;47.50;101706.69;5088999;28;20124;-21
2022/01/19 09:08:27;;;;;;;12.95;4.80;;;;;;;4.13;46.57;101687.81;5089074;28;20101;-20
2022/01/19 09:10:57;;;;;;;11.10;5.60;;;;;;;4.36;47.43;101694.50;5088917;28;20039;-21
2022/01/19 09:13:23;;;;;;;11.32;4.50;;;;;;;4.48;47.26;101686.47;5089147;28;20090;-25
2022/01/19 09:15:48;;;;;;;10.75;4.75;;;;;;;4.80;46.02;101697.56;5088829;28;20613;-21
2022/01/19 09:18:14;;;;;;;9.80;4.68;;;;;;;4.56;46.13;101699.81;5089035;28;20036;-21
2022/01/19 09:20:39;;;;;;;11.50;4.47;;;;;;;4.12;46.04;101686.97;5108688;28;20522;-21
2022/01/19 09:23:04;;;;;;;7.28;3.95;;;;;;;3.96;46.48;101645.28;5109082;28;20028;-21
2022/01/19 09:25:30;;;;;;;8.70;4.22;;;;;;;4.46;45.56;101688.41;5109099;28;20031;-21
2022/01/19 09:27:55;;;;;;;10.52;3.95;;;;;;;4.62;45.66;101678.13;5109121;28;20027;-21
2022/01/19 09:30:23;;;;;;;11.75;5.95;;;;;;;4.73;44.96;101669.19;5109010;28;20043;-21
2022/01/19 09:32:56;;;;;;;13.93;6.55;;;;;;;4.78;43.78;101636.09;5108980;28;20028;-21
2022/01/19 09:35:25;;;;;;;10.30;4.63;;;;;;;5.23;44.42;101650.41;5108804;28;20058;-21
2022/01/19 09:37:50;;;;;;;10.13;4.82;;;;;;;5.22;44.31;101631.06;5108670;28;20031;-23
2022/01/19 09:40:16;;;;;;;11.00;5.65;;;;;;;5.03;44.10;101628.50;5108766;28;20422;-21
2022/01/19 09:42:44;;;;;;;13.38;5.38;;;;;;;5.54;42.31;101647.53;5108724;28;20492;-21
2022/01/19 09:45:09;;;;;;;;;;;;;;;5.66;43.15;101667.53;5108952;28;20031;-21
2022/01/19 09:47:35;;;;;;;12.88;5.55;;;;;;;5.69;41.87;101655.78;5107994;28;20291;-21
2022/01/19 09:50:00;;;;;;;14.15;5.72;;;;;;;5.72;41.67;101650.19;5108609;28;20039;-21
2022/01/19 09:52:26;;;;;;;15.73;6.45;;;;;;;5.67;42.33;101639.22;5073435;28;20036;-21
2022/01/19 09:54:53;;;;;;;12.18;5.32;;;;;;;5.28;42.33;101612.97;5108518;28;20039;-21
2022/01/19 09:57:19;;;;;;;9.60;3.90;;;;;;;5.49;40.83;101640.00;5108249;28;20049;-20
2022/01/19 09:59:45;;;;;;;7.00;3.25;;;;;;;5.00;41.30;101634.88;5089994;28;20031;-21
2022/01/19 10:02:10;;;;;;;6.20;3.38;;;;;;;5.19;41.54;101643.75;5108032;28;20067;-20
2022/01/19 10:04:38;;;;;;;12.18;5.68;;;;;;;5.03;41.78;101618.75;5108113;28;20039;-20
2022/01/19 10:07:23;;;;;;;15.23;6.03;;;;;;;5.69;41.23;101621.38;5107985;28;20535;-21
2022/01/19 10:09:56;;;;;;;27.45;11.60;;;;;;;6.19;39.63;101642.09;5108219;28;20137;-22
2022/01/19 10:18:17;;;;;;;6.22;2.80;;;;;;;5.32;39.12;101614.34;5108505;28;20042;-20
2022/01/19 10:20:43;;;;;;;8.52;3.90;;;;;;;5.38;39.71;101606.63;5107705;28;20062;-21
2022/01/19 10:23:36;;;;;;;9.30;3.78;;;;;;;5.86;38.29;101594.09;5107145;28;20438;-20
2022/01/19 10:26:02;;;;;;;6.97;3.38;;;;;;;6.14;38.03;101608.13;5092534;28;20506;-21
2022/01/19 10:28:28;;;;;;;10.73;3.47;;;;;;;5.87;36.68;101616.13;5107751;28;20407;-21
2022/01/19 10:30:53;;;;;;;8.05;3.90;;;;;;;5.74;37.17;101605.88;5089393;28;20040;-21
2022/01/19 10:33:19;;;;;;;11.70;4.32;;;;;;;5.73;37.57;101589.16;5107398;28;20059;-21
2022/01/19 10:35:46;;;;;;;9.57;3.80;;;;;;;5.98;37.68;101590.25;5107446;28;20032;-21
2022/01/19 10:38:16;;;;;;;7.35;3.53;;;;;;;6.02;38.54;101569.63;5089347;28;20035;-20
2022/01/19 10:40:54;;;;;;;14.40;7.20;;;;;;;6.62;38.59;101587.50;5107671;28;20038;-20
2022/01/19 10:43:38;;;;;;;9.23;4.80;;;;;;;6.01;39.27;101582.03;5107163;28;20384;-22
2022/01/19 10:46:16;;;;;;;9.57;3.78;;;;;;;6.46;38.00;101568.78;5107423;28;20028;-21
2022/01/19 10:48:42;;;;;;;9.90;3.93;;;;;;;6.70;37.39;101568.97;5107638;28;20024;-20
2022/01/19 10:51:17;;;;;;;6.88;3.15;;;;;;;6.49;37.01;101557.91;5107475;28;20027;-21
2022/01/19 10:54:04;;;;;;;8.88;3.55;;;;;;;7.10;36.12;101564.03;5107544;28;20483;-21
2022/01/19 10:56:30;;;;;;;7.47;3.60;;;;;;;6.56;36.61;101553.63;5107052;28;20099;-20
2022/01/19 10:58:59;;;;;;;7.28;3.28;;;;;;;6.57;37.80;101550.00;5106931;28;20027;-22
2022/01/19 11:01:48;;;;;;;7.65;3.45;;;;;;;6.69;36.27;101542.63;5088959;28;20035;-21
2022/01/19 11:04:32;;;;;;;;;;;;;;;7.18;36.38;101551.63;5107993;28;20032;-22
2022/01/19 11:06:59;;;;;;;5.95;2.53;;;;;;;6.77;35.45;101514.31;5106814;28;20044;-21
2022/01/19 11:09:26;;;;;;;6.40;3.13;;;;;;;6.43;36.96;101498.38;5107525;28;20117;-20
2022/01/19 11:11:53;;;;;;;8.00;3.07;;;;;;;6.98;35.64;101523.69;5107379;28;20038;-21
2022/01/19 11:14:18;;;;;;;6.45;2.83;;;;;;;7.63;36.51;101521.22;5107406;28;20019;-21
2022/01/19 11:16:44;;;;;;;6.20;2.67;;;;;;;7.81;34.50;101517.63;5107059;28;20043;-21
2022/01/19 11:19:10;;;;;;;5.85;2.38;;;;;;;7.19;34.45;101497.59;5106878;28;20051;-20
2022/01/19 11:21:54;;;;;;;7.35;3.00;;;;;;;7.45;34.63;101507.25;5088706;28;20039;-21
2022/01/19 11:24:39;;;;;;;10.85;4.32;;;;;;;8.13;34.15;101505.31;5091327;28;20051;-22
2022/01/19 11:27:04;;;;;;;6.07;3.10;;;;;;;8.25;34.36;101504.81;5089987;28;20028;-21
2022/01/19 11:29:31;;;;;;;7.60;3.28;;;;;;;7.68;33.95;101498.66;5088916;28;20109;-21
2022/01/19 11:31:56;;;;;;;6.57;2.83;;;;;;;7.44;33.51;101495.00;5107105;28;20035;-21
2022/01/19 11:34:40;;;;;;;5.95;2.80;;;;;;;7.42;33.25;101497.00;5089156;28;20042;-20
2022/01/19 11:37:05;;;;;;;7.63;2.92;;;;;;;7.54;32.50;101469.13;5106786;28;20028;-21
2022/01/19 11:39:31;;;;;;;7.55;2.70;;;;;;;8.07;32.89;101488.22;5107561;28;20058;-20
2022/01/19 11:41:58;;;;;;;8.38;3.92;;;;;;;7.90;32.77;101478.59;5106817;28;20059;-21
2022/01/19 11:44:33;;;;;;;6.57;3.07;;;;;;;7.99;32.68;101486.41;5106755;28;20042;-21
2022/01/19 11:47:16;;;;;;;7.43;3.60;;;;;;;8.01;34.05;101471.13;5106786;28;20039;-21
2022/01/19 11:50:01;;;;;;;10.27;3.55;;;;;;;8.38;32.64;101480.38;5107120;28;20040;-20
2022/01/19 11:52:38;;;;;;;8.82;3.70;;;;;;;8.07;33.52;101479.41;5106976;28;20028;-21
2022/01/19 11:55:09;;;;;;;10.32;3.95;;;;;;;8.04;32.32;101481.41;5106869;28;20513;-21
2022/01/19 11:57:35;;;;;;;9.70;3.40;;;;;;;8.21;33.30;101466.28;5106941;28;20185;-21
2022/01/19 12:00:06;;;;;;;5.70;2.88;;;;;;;7.76;32.73;101467.63;5106618;28;20035;-20
2022/01/19 12:02:36;;;;;;;7.18;3.58;;;;;;;7.79;33.29;101463.84;5106765;28;20031;-21
2022/01/19 12:05:24;;;;;;;8.43;3.95;;;;;;;8.01;32.70;101475.63;5106531;28;20039;-21
2022/01/19 12:08:00;;;;;;;6.18;3.20;;;;;;;8.04;32.05;101444.22;5090349;28;20039;-22
2022/01/19 12:10:31;;;;;;;7.57;2.85;;;;;;;8.14;31.85;101459.97;5107030;28;20028;-20
2022/01/19 12:13:26;;;;;;;6.13;3.10;;;;;;;8.97;31.73;101449.91;5110266;28;20031;-21
2022/01/19 12:15:56;;;;;;;5.63;2.60;;;;;;;8.76;31.05;101442.53;5110509;28;20023;-20
2022/01/19 12:18:51;;;;;;;7.53;2.95;;;;;;;7.95;31.80;101445.22;5092465;28;20035;-21
2022/01/19 12:21:31;;;;;;;12.07;4.57;;;;;;;8.80;32.22;101443.84;5110088;28;20031;-21
2022/01/19 12:24:15;;;;;;;9.35;4.18;;;;;;;8.67;32.05;101417.81;5109757;28;20035;-21
2022/01/19 12:26:51;;;;;;;6.20;3.25;;;;;;;8.66;31.99;101416.16;5110689;28;20027;-21
2022/01/19 12:29:38;;;;;;;8.10;3.10;;;;;;;9.02;31.91;101436.94;5109943;28;20487;-20
2022/01/19 12:32:25;;;;;;;6.68;2.90;;;;;;;8.49;31.50;101422.56;5110152;28;20036;-20
2022/01/19 12:34:57;;;;;;;6.22;2.92;;;;;;;8.54;31.75;101420.19;5095128;28;20039;-21
2022/01/19 12:37:52;;;;;;;9.32;3.67;;;;;;;8.53;31.69;101411.38;5109862;28;20019;-21
2022/01/19 12:40:18;;;;;;;7.72;3.40;;;;;;;9.55;31.24;101405.94;5109940;28;20039;-21
2022/01/19 12:42:54;;;;;;;8.27;3.47;;;;;;;9.23;31.69;101391.06;5109551;28;20031;-21
2022/01/19 12:45:30;;;;;;;8.32;3.80;;;;;;;10.79;28.84;101389.50;5109902;28;20031;-21
2022/01/19 12:47:59;;;;;;;7.38;3.38;;;;;;;10.75;29.29;101401.56;5109824;28;20114;-21
2022/01/19 12:50:24;;;;;;;7.40;3.60;;;;;;;10.29;29.86;101378.56;5109738;28;20801;-20
2022/01/19 12:52:54;;;;;;;8.85;3.95;;;;;;;10.35;29.85;101377.03;5109744;28;20034;-20
2022/01/19 12:55:22;;;;;;;8.65;3.38;;;;;;;10.80;29.26;101397.28;5109422;28;20042;-21
2022/01/19 12:57:47;;;;;;;7.13;3.35;;;;;;;11.22;28.67;101387.69;5109524;28;20051;-21
2022/01/19 13:00:15;;;;;;;10.18;3.90;;;;;;;11.15;28.14;101381.44;5109796;28;20046;-21
2022/01/19 13:02:41;;;;;;;10.23;3.95;;;;;;;11.99;28.07;101383.41;5090916;28;20518;-20